Terminal Aerodrome Forecast
Issued by NWS

Home | Current Version | Previous Version | Text Only | Print | Product List | Glossary On
Versions: 1 2 3 4 5 6 7 8 9 10 11 12 13 14 15 16 17 18 19 20 21
000
FTUS45 KTFX 172300 CCA
TAFHVR
TAF COR
KHVR 172342Z 1800/1824 11010KT P6SM VCSH SCT040 OVC070
      TEMPO 1800/1802 23010G20KT
     FM180600 21010KT P6SM VCSH SCT040 BKN070
      TEMPO 1808/1812 -SHRA BKN035
     FM181500 25017G28KT P6SM SCT060 BKN090
     FM181900 26022G35KT P6SM SKC=

USA.gov is the U.S. government's official web portal to all federal, state and local government web resources and services.